KSNC

Chester Airport

Chester, Connecticut, USA
METAR KSNC 280115Z AUTO 04012KT 10SM OVC007 12/10 A3011 RMK AO2
Observed Flight Rules
May-28 @ 01:15 UTC (13 minutes ago) Instrument Flight Rules
Wind Visibility Clouds
40° at 12 knots 10 miles
  • Overcast at 700' AGL
Temperatures Readings
Current 12°C / 54°F
Dewpoint 10°C / 50°F
Humidity 88%
Altimeter 30.11" Hg
Pressure 1020 hPa
Elevation 127
METAR KSNC 280115Z AUTO 04012KT 10SM OVC007 12/10 A3011 RMK AO2
Observed Flight Rules
May-28 @ 01:15 UTC
(13 minutes ago)
IFR
Wind Visibility
40° at 12 knots 10 miles
Clouds
  • Overcast at 700' AGL
Temperature Dewpoint
12°C / 54°F 10°C / 50°F
Humidity Altimeter Pressure
88% 30.11" Hg 1020 hPa